createdAt,value
2023-10-23T00:00:53.161Z,9.90
2023-10-23T00:03:21.350Z,9.51
2023-10-23T00:05:49.496Z,9.07
2023-10-23T00:08:17.612Z,9.19
2023-10-23T00:10:46.220Z,8.98
2023-10-23T00:13:14.341Z,8.57
2023-10-23T00:15:43.833Z,8.68
2023-10-23T00:18:11.826Z,8.56
2023-10-23T00:20:39.791Z,8.17
2023-10-23T00:23:07.769Z,8.39
2023-10-23T00:25:36.779Z,8.83
2023-10-23T00:28:04.913Z,8.77
2023-10-23T00:30:36.772Z,8.86
2023-10-23T00:33:06.375Z,8.37
2023-10-23T00:35:34.463Z,8.56
2023-10-23T00:38:02.477Z,8.78
2023-10-23T00:40:32.894Z,8.75
2023-10-23T00:43:13.528Z,8.55
2023-10-23T00:45:52.114Z,7.94
2023-10-23T00:48:23.819Z,7.85
2023-10-23T00:50:53.346Z,8.13
2023-10-23T00:53:26.684Z,7.96
2023-10-23T00:55:56.932Z,7.77
2023-10-23T00:58:27.385Z,7.47
2023-10-23T01:00:59.179Z,7.59
2023-10-23T01:03:28.624Z,7.80
2023-10-23T01:05:56.746Z,7.71
2023-10-23T01:08:24.936Z,7.60
2023-10-23T01:10:53.429Z,7.83
2023-10-23T01:13:21.400Z,8.12
2023-10-23T01:15:49.799Z,8.26
2023-10-23T01:18:17.815Z,7.97
2023-10-23T01:20:47.304Z,7.75
2023-10-23T01:23:15.456Z,7.37
2023-10-23T01:25:44.763Z,7.33
2023-10-23T01:28:12.757Z,7.61
2023-10-23T01:30:41.702Z,8.14
2023-10-23T01:33:09.889Z,7.64
2023-10-23T01:35:37.873Z,7.31
2023-10-23T01:38:05.844Z,7.17
2023-10-23T01:40:33.973Z,7.42
2023-10-23T01:43:03.415Z,7.34
2023-10-23T01:45:31.376Z,7.40
2023-10-23T01:47:59.428Z,7.90
2023-10-23T01:50:27.376Z,8.08
2023-10-23T01:52:55.346Z,7.27
2023-10-23T01:55:23.305Z,7.46
2023-10-23T01:57:51.620Z,7.02
2023-10-23T02:00:21.169Z,7.03
2023-10-23T02:02:49.189Z,7.09
2023-10-23T02:05:17.143Z,7.23
2023-10-23T02:07:45.097Z,7.36
2023-10-23T02:10:13.034Z,7.02
2023-10-23T02:12:41.072Z,6.84
2023-10-23T02:15:11.406Z,7.00
2023-10-23T02:17:40.975Z,7.08
2023-10-23T02:20:09.548Z,7.06
2023-10-23T02:22:37.765Z,7.47
2023-10-23T02:25:06.887Z,7.53
2023-10-23T02:27:34.853Z,7.37
2023-10-23T02:30:03.007Z,7.15
2023-10-23T02:32:31.074Z,7.31
2023-10-23T02:35:00.502Z,7.55
2023-10-23T02:37:28.441Z,7.31
2023-10-23T02:39:58.527Z,7.43
2023-10-23T02:42:26.535Z,7.60
2023-10-23T02:44:55.270Z,7.56
2023-10-23T02:47:23.265Z,7.47
2023-10-23T02:49:51.288Z,7.38
2023-10-23T02:52:22.143Z,7.51
2023-10-23T02:54:51.982Z,7.62
2023-10-23T02:57:20.101Z,7.68
2023-10-23T02:59:48.940Z,7.73
2023-10-23T03:02:17.903Z,7.59
2023-10-23T03:04:45.874Z,7.48
2023-10-23T03:07:14.599Z,7.18
2023-10-23T03:09:44.223Z,7.39
2023-10-23T03:12:12.223Z,7.21
2023-10-23T03:14:40.230Z,7.28
2023-10-23T03:17:08.594Z,7.29
2023-10-23T03:19:36.684Z,7.33
2023-10-23T03:22:05.204Z,7.23
2023-10-23T03:24:34.976Z,7.07
2023-10-23T03:27:04.585Z,7.46
2023-10-23T03:29:32.662Z,7.74
2023-10-23T03:32:00.636Z,7.67
2023-10-23T03:34:28.606Z,7.02
2023-10-23T03:36:56.604Z,6.89
2023-10-23T03:39:24.693Z,6.97
2023-10-23T03:41:52.682Z,7.09
2023-10-23T03:44:22.013Z,7.19
2023-10-23T03:46:50.008Z,7.21
2023-10-23T03:49:18.056Z,7.11
2023-10-23T03:51:46.020Z,7.01
2023-10-23T03:54:14.026Z,7.04
2023-10-23T03:56:42.019Z,7.36
2023-10-23T03:59:10.050Z,7.88
2023-10-23T04:01:39.456Z,7.43
2023-10-23T04:04:08.386Z,7.39
2023-10-23T04:06:37.110Z,7.43
2023-10-23T04:09:05.349Z,6.58
2023-10-23T04:11:33.357Z,6.74
2023-10-23T04:14:01.305Z,6.51
2023-10-23T04:16:29.370Z,6.78
2023-10-23T04:18:58.752Z,6.67
2023-10-23T04:21:26.850Z,6.49
2023-10-23T04:23:54.830Z,6.51
2023-10-23T04:26:22.889Z,6.56
2023-10-23T04:28:50.832Z,6.78
2023-10-23T04:31:18.814Z,6.79
2023-10-23T04:33:46.803Z,6.80
2023-10-23T04:36:16.132Z,6.79
2023-10-23T04:38:44.221Z,7.01
2023-10-23T04:41:12.309Z,7.23
2023-10-23T04:43:40.450Z,7.55
2023-10-23T04:46:08.472Z,7.71
2023-10-23T04:48:36.528Z,7.69
2023-10-23T04:51:04.544Z,7.89
2023-10-23T04:53:33.903Z,7.56
2023-10-23T04:56:01.879Z,7.46
2023-10-23T04:58:30.932Z,7.77
2023-10-23T05:00:59.105Z,7.60
2023-10-23T05:03:27.253Z,7.41
2023-10-23T05:05:55.265Z,7.39
2023-10-23T05:08:23.289Z,7.29
2023-10-23T05:10:53.113Z,6.96
2023-10-23T05:13:21.133Z,6.48
2023-10-23T05:15:49.133Z,6.38
2023-10-23T05:18:17.102Z,6.48
2023-10-23T05:20:45.103Z,6.77
2023-10-23T05:23:13.051Z,6.63
2023-10-23T05:25:41.050Z,7.21
2023-10-23T05:28:10.394Z,6.91
2023-10-23T05:30:38.374Z,7.00
2023-10-23T05:33:06.379Z,6.94
2023-10-23T05:35:34.396Z,6.74
2023-10-23T05:38:02.351Z,7.08
2023-10-23T05:40:30.330Z,7.24
2023-10-23T05:42:58.316Z,7.41
2023-10-23T05:45:27.882Z,7.39
2023-10-23T05:47:55.879Z,7.56
2023-10-23T05:50:24.027Z,7.46
2023-10-23T05:52:51.987Z,7.26
2023-10-23T05:55:22.007Z,7.50
2023-10-23T05:57:50.041Z,7.52
2023-10-23T06:00:18.993Z,7.50
2023-10-23T06:02:48.502Z,7.41
2023-10-23T06:05:16.484Z,7.54
2023-10-23T06:07:44.576Z,7.41
2023-10-23T06:10:12.683Z,7.39
2023-10-23T06:12:40.703Z,7.56
2023-10-23T06:15:11.325Z,7.63
2023-10-23T06:17:39.377Z,7.32
2023-10-23T06:20:10.806Z,7.51
2023-10-23T06:22:38.748Z,7.54
2023-10-23T06:25:07.317Z,7.56
2023-10-23T06:27:35.291Z,7.66
2023-10-23T06:30:04.213Z,7.38
2023-10-23T06:32:35.876Z,6.81
2023-10-23T06:35:05.276Z,6.99
2023-10-23T06:37:34.960Z,7.54
2023-10-23T06:40:04.217Z,7.34
2023-10-23T06:42:32.251Z,7.21
2023-10-23T06:45:00.504Z,7.20
2023-10-23T06:47:28.865Z,7.16
2023-10-23T06:49:56.915Z,7.18
2023-10-23T06:52:25.020Z,7.33
2023-10-23T06:54:54.435Z,7.23
2023-10-23T06:57:22.562Z,7.38
2023-10-23T06:59:51.592Z,7.14
2023-10-23T07:02:19.710Z,7.29
2023-10-23T07:04:49.197Z,7.41
2023-10-23T07:07:28.761Z,7.35
2023-10-23T07:10:01.704Z,7.33
2023-10-23T07:12:30.373Z,7.36
2023-10-23T07:14:58.568Z,7.27
2023-10-23T07:17:26.750Z,7.45
2023-10-23T07:19:54.797Z,7.79
2023-10-23T07:22:23.020Z,7.88
2023-10-23T07:24:50.993Z,7.90
2023-10-23T07:27:20.459Z,7.94
2023-10-23T07:29:48.874Z,8.50
2023-10-23T07:32:17.077Z,9.48
2023-10-23T07:34:45.357Z,9.83
2023-10-23T07:37:19.206Z,10.01
2023-10-23T07:39:48.987Z,10.19
2023-10-23T07:42:17.525Z,10.30
2023-10-23T07:44:47.033Z,10.39
2023-10-23T07:47:15.434Z,10.44
2023-10-23T07:49:43.471Z,10.71
2023-10-23T07:52:11.640Z,10.96
2023-10-23T07:54:39.785Z,10.92
2023-10-23T07:57:07.796Z,10.81
2023-10-23T07:59:35.814Z,10.72
2023-10-23T08:02:05.717Z,10.96
2023-10-23T08:04:34.258Z,10.79
2023-10-23T08:07:02.608Z,10.92
2023-10-23T08:09:30.721Z,10.91
2023-10-23T08:11:58.857Z,10.96
2023-10-23T08:14:26.938Z,10.96
2023-10-23T08:16:54.996Z,10.87
2023-10-23T08:19:24.636Z,10.95
2023-10-23T08:21:53.484Z,10.99
2023-10-23T08:24:21.523Z,11.06
2023-10-23T08:26:49.464Z,11.18
2023-10-23T08:29:17.453Z,11.13
2023-10-23T08:31:45.477Z,11.21
2023-10-23T08:34:13.534Z,11.19
2023-10-23T08:36:43.048Z,11.27
2023-10-23T08:39:11.791Z,11.31
2023-10-23T08:41:42.776Z,11.45
2023-10-23T08:44:12.007Z,11.69
2023-10-23T08:46:42.307Z,11.65
2023-10-23T08:49:10.605Z,11.69
2023-10-23T08:51:43.611Z,11.61
2023-10-23T08:54:18.709Z,12.14
2023-10-23T08:56:48.929Z,11.99
2023-10-23T08:59:16.962Z,12.10
2023-10-23T09:01:45.057Z,12.00
2023-10-23T09:04:14.207Z,12.61
2023-10-23T09:06:44.734Z,12.85
2023-10-23T09:09:12.956Z,12.65
2023-10-23T09:11:44.733Z,12.84
2023-10-23T09:14:24.028Z,12.88
2023-10-23T09:16:53.454Z,12.88
2023-10-23T09:19:31.058Z,12.38
2023-10-23T09:22:00.865Z,12.20
2023-10-23T09:24:29.163Z,12.23
2023-10-23T09:26:57.385Z,12.16
2023-10-23T09:29:26.073Z,11.95
2023-10-23T09:31:56.072Z,12.03
2023-10-23T09:34:24.274Z,12.10
2023-10-23T09:36:53.983Z,12.08
2023-10-23T09:39:24.294Z,12.27
2023-10-23T09:41:54.317Z,12.48
2023-10-23T09:44:25.640Z,12.52
2023-10-23T09:46:56.087Z,12.42
2023-10-23T09:49:25.382Z,12.36
2023-10-23T09:52:01.634Z,12.31
2023-10-23T09:54:33.946Z,12.20
2023-10-23T09:57:06.158Z,12.47
2023-10-23T09:59:43.793Z,12.51
2023-10-23T10:02:12.430Z,12.59
2023-10-23T10:04:53.632Z,12.48
2023-10-23T10:07:28.584Z,12.40
2023-10-23T10:09:59.122Z,12.50
2023-10-23T10:12:29.256Z,12.73
2023-10-23T10:14:59.796Z,12.72
2023-10-23T10:17:29.943Z,12.50
2023-10-23T10:19:58.680Z,13.07
2023-10-23T10:22:32.733Z,12.71
2023-10-23T10:25:02.566Z,12.79
2023-10-23T10:27:30.878Z,12.79
2023-10-23T10:30:05.440Z,12.90
2023-10-23T10:32:34.878Z,12.88
2023-10-23T10:35:41.714Z,13.08
2023-10-23T10:38:13.991Z,13.26
2023-10-23T10:41:00.292Z,13.15
2023-10-23T10:43:33.576Z,13.29
2023-10-23T10:46:03.357Z,13.63
2023-10-23T10:48:44.250Z,13.89
2023-10-23T10:51:15.760Z,13.39
2023-10-23T10:53:44.132Z,13.41
2023-10-23T10:56:14.040Z,13.35
2023-10-23T10:58:44.456Z,13.16
2023-10-23T11:01:12.611Z,13.37
2023-10-23T11:03:42.579Z,13.19
2023-10-23T11:06:11.551Z,13.35
2023-10-23T11:08:42.755Z,13.44
2023-10-23T11:11:10.931Z,13.31
2023-10-23T11:13:41.349Z,13.36
2023-10-23T11:16:09.540Z,13.11
2023-10-23T11:18:38.105Z,13.01
2023-10-23T11:21:07.788Z,12.88
2023-10-23T11:23:35.739Z,13.14
2023-10-23T11:26:05.043Z,13.39
2023-10-23T11:28:33.087Z,13.53
2023-10-23T11:31:02.605Z,13.39
2023-10-23T11:33:30.693Z,13.30
2023-10-23T11:35:58.782Z,13.06
2023-10-23T11:38:28.545Z,13.25
2023-10-23T11:40:56.927Z,13.29
2023-10-23T11:43:25.162Z,13.42
2023-10-23T11:45:53.509Z,13.39
2023-10-23T11:48:23.456Z,13.49
2023-10-23T11:50:53.744Z,13.36
2023-10-23T11:53:22.078Z,13.16
2023-10-23T11:55:52.246Z,13.65
2023-10-23T11:58:28.086Z,13.34
2023-10-23T12:00:56.285Z,13.83
2023-10-23T12:03:25.735Z,13.90
2023-10-23T12:05:54.312Z,13.87
2023-10-23T12:08:22.612Z,14.02
2023-10-23T12:10:51.033Z,13.54
2023-10-23T12:13:19.221Z,13.78
2023-10-23T12:15:47.424Z,13.85
2023-10-23T12:18:15.554Z,13.89
2023-10-23T12:20:45.367Z,13.83
2023-10-23T12:23:13.602Z,13.88
2023-10-23T12:25:41.748Z,13.73
2023-10-23T12:28:09.955Z,13.82
2023-10-23T12:30:38.459Z,14.07
2023-10-23T12:33:16.609Z,13.90
2023-10-23T12:35:53.717Z,14.05
2023-10-23T12:38:23.204Z,14.07
2023-10-23T12:40:51.411Z,14.10
2023-10-23T12:43:19.568Z,13.95
2023-10-23T12:45:48.126Z,14.10
2023-10-23T12:48:16.369Z,13.86
2023-10-23T12:50:46.051Z,13.68
2023-10-23T12:53:16.220Z,14.06
2023-10-23T12:55:44.953Z,13.60
2023-10-23T12:58:12.996Z,13.90
2023-10-23T13:00:41.137Z,14.07
2023-10-23T13:03:09.134Z,13.64
2023-10-23T13:05:37.623Z,13.52
2023-10-23T13:08:06.048Z,13.72
2023-10-23T13:10:35.558Z,13.82
2023-10-23T13:13:03.937Z,13.62
2023-10-23T13:15:32.026Z,13.67
2023-10-23T13:18:02.724Z,13.74
2023-10-23T13:21:29.814Z,13.60
2023-10-23T13:23:19.293Z,13.60
2023-10-23T13:25:58.068Z,13.55
2023-10-23T13:28:35.276Z,13.63
2023-10-23T13:31:03.947Z,13.70
2023-10-23T13:33:32.060Z,13.80
2023-10-23T13:36:00.390Z,13.59
2023-10-23T13:38:28.574Z,13.61
2023-10-23T13:40:58.319Z,13.85
2023-10-23T13:43:27.859Z,14.02
2023-10-23T13:45:56.040Z,14.14
2023-10-23T13:48:24.150Z,14.22
2023-10-23T13:50:52.853Z,14.19
2023-10-23T13:53:23.080Z,14.16
2023-10-23T13:55:51.582Z,14.10
2023-10-23T13:58:21.720Z,13.84
2023-10-23T14:00:49.982Z,13.87
2023-10-23T14:03:18.213Z,13.86
2023-10-23T14:05:46.517Z,14.01
2023-10-23T14:08:14.549Z,13.83
2023-10-23T14:10:42.547Z,13.71
2023-10-23T14:13:10.666Z,13.78
2023-10-23T14:15:40.178Z,13.78
2023-10-23T14:18:08.199Z,13.61
2023-10-23T14:20:36.270Z,13.44
2023-10-23T14:23:05.092Z,13.52
2023-10-23T14:25:33.220Z,13.43
2023-10-23T14:28:01.403Z,13.52
2023-10-23T14:30:29.574Z,13.26
2023-10-23T14:32:59.050Z,13.20
2023-10-23T14:35:32.430Z,13.15
2023-10-23T14:38:01.171Z,13.20
2023-10-23T14:40:29.238Z,13.20
2023-10-23T14:42:58.403Z,13.09
2023-10-23T14:45:26.572Z,13.14
2023-10-23T14:47:54.868Z,13.02
2023-10-23T14:50:24.238Z,12.95
2023-10-23T14:52:52.250Z,13.02
2023-10-23T14:55:20.219Z,13.08
2023-10-23T14:57:48.236Z,12.98
2023-10-23T15:00:16.810Z,12.89
2023-10-23T15:02:46.186Z,12.88
2023-10-23T15:05:14.240Z,12.97
2023-10-23T15:07:43.695Z,12.59
2023-10-23T15:10:11.835Z,12.84
2023-10-23T15:12:39.913Z,12.59
2023-10-23T15:15:09.427Z,12.52
2023-10-23T15:17:37.506Z,12.81
2023-10-23T15:20:06.212Z,12.88
2023-10-23T15:22:35.529Z,12.56
2023-10-23T15:25:05.726Z,12.69
2023-10-23T15:27:33.915Z,12.43
2023-10-23T15:30:01.978Z,12.42
2023-10-23T15:32:32.002Z,12.71
2023-10-23T15:35:00.121Z,12.79
2023-10-23T15:37:28.282Z,12.71
2023-10-23T15:39:56.383Z,12.73
2023-10-23T15:42:26.318Z,12.64
2023-10-23T15:44:58.255Z,12.69
2023-10-23T15:47:26.371Z,12.60
2023-10-23T15:49:54.384Z,12.62
2023-10-23T15:52:22.416Z,12.63
2023-10-23T15:54:50.430Z,12.62
2023-10-23T15:57:18.400Z,12.64
2023-10-23T15:59:47.999Z,12.53
2023-10-23T16:02:16.466Z,12.46
2023-10-23T16:04:48.275Z,12.42
2023-10-23T16:07:16.617Z,12.44
2023-10-23T16:09:44.710Z,12.09
2023-10-23T16:12:12.740Z,12.27
2023-10-23T16:17:13.142Z,12.21
2023-10-23T16:19:41.278Z,12.19
2023-10-23T16:22:09.746Z,12.19
2023-10-23T16:24:38.025Z,12.19
2023-10-23T16:27:06.723Z,11.87
2023-10-23T16:29:34.747Z,11.81
2023-10-23T16:32:02.924Z,11.79
2023-10-23T16:34:33.865Z,11.80
2023-10-23T16:37:01.880Z,11.66
2023-10-23T16:39:31.944Z,11.63
2023-10-23T16:42:00.211Z,11.60
2023-10-23T16:44:37.452Z,11.61
2023-10-23T16:47:14.368Z,11.59
2023-10-23T16:49:44.351Z,11.82
2023-10-23T16:52:12.361Z,11.54
2023-10-23T16:54:40.631Z,11.63
2023-10-23T16:57:10.362Z,11.61
2023-10-23T16:59:39.059Z,11.56
2023-10-23T17:02:07.371Z,11.53
2023-10-23T17:04:35.739Z,11.68
2023-10-23T17:07:05.797Z,11.51
2023-10-23T17:09:33.816Z,11.40
2023-10-23T17:12:01.788Z,11.34
2023-10-23T17:14:29.858Z,11.33
2023-10-23T17:16:57.895Z,11.21
2023-10-23T17:19:26.099Z,11.21
2023-10-23T17:21:54.137Z,11.24
2023-10-23T17:24:23.489Z,11.19
2023-10-23T17:26:51.449Z,11.18
2023-10-23T17:29:19.457Z,11.21
2023-10-23T17:31:48.415Z,11.27
2023-10-23T17:34:18.092Z,11.26
2023-10-23T17:36:46.064Z,11.26
2023-10-23T17:39:14.040Z,11.30
2023-10-23T17:41:43.718Z,11.32
2023-10-23T17:44:11.696Z,11.52
2023-10-23T17:46:39.758Z,11.71
2023-10-23T17:49:07.911Z,11.56
2023-10-23T17:51:36.444Z,11.35
2023-10-23T17:54:06.209Z,11.38
2023-10-23T17:56:37.390Z,11.33
2023-10-23T17:59:07.001Z,11.38
2023-10-23T18:01:35.226Z,11.39
2023-10-23T18:04:03.384Z,11.36
2023-10-23T18:06:32.271Z,11.45
2023-10-23T18:09:02.072Z,11.66
2023-10-23T18:11:30.369Z,11.87
2023-10-23T18:13:58.375Z,11.87
2023-10-23T18:16:28.832Z,11.84
2023-10-23T18:18:57.283Z,11.84
2023-10-23T18:21:25.389Z,11.78
2023-10-23T18:23:53.344Z,11.89
2023-10-23T18:26:21.381Z,11.94
2023-10-23T18:28:49.317Z,11.89
2023-10-23T18:31:17.375Z,11.88
2023-10-23T18:33:46.834Z,11.96
2023-10-23T18:36:17.271Z,11.98
2023-10-23T18:38:46.192Z,11.95
2023-10-23T18:41:18.580Z,11.98
2023-10-23T18:43:46.993Z,12.05
2023-10-23T18:46:15.868Z,11.90
2023-10-23T18:48:45.055Z,11.81
2023-10-23T18:51:14.875Z,11.82
2023-10-23T18:53:42.945Z,11.85
2023-10-23T18:56:11.394Z,11.78
2023-10-23T18:58:42.978Z,11.78
2023-10-23T19:01:13.435Z,12.03
2023-10-23T19:03:43.758Z,11.99
2023-10-23T19:06:11.812Z,11.99
2023-10-23T19:08:42.269Z,12.12
2023-10-23T19:11:10.575Z,12.08
2023-10-23T19:13:38.616Z,12.05
2023-10-23T19:16:08.204Z,12.06
2023-10-23T19:18:37.465Z,12.05
2023-10-23T19:21:09.791Z,12.02
2023-10-23T19:23:37.893Z,12.13
2023-10-23T19:26:07.564Z,12.09
2023-10-23T19:28:36.508Z,12.12
2023-10-23T19:31:13.625Z,12.11
2023-10-23T19:33:43.524Z,12.11
2023-10-23T19:36:13.219Z,12.22
2023-10-23T19:38:43.534Z,12.16
2023-10-23T19:41:16.273Z,12.18
2023-10-23T19:43:49.364Z,12.06
2023-10-23T19:46:17.965Z,12.15
2023-10-23T19:48:47.342Z,12.01
2023-10-23T19:51:17.962Z,12.00
2023-10-23T19:53:51.889Z,12.09
2023-10-23T19:56:29.948Z,11.96
2023-10-23T19:59:00.365Z,11.89
2023-10-23T20:01:28.562Z,12.00
2023-10-23T20:03:56.720Z,11.96
2023-10-23T20:06:24.850Z,11.92
2023-10-23T20:08:52.844Z,11.92
2023-10-23T20:11:22.324Z,11.93
2023-10-23T20:13:50.304Z,11.98
2023-10-23T20:16:18.349Z,11.93
2023-10-23T20:18:46.313Z,11.96
2023-10-23T20:21:15.336Z,12.00
2023-10-23T20:23:43.379Z,11.80
2023-10-23T20:26:15.377Z,11.85
2023-10-23T20:28:45.389Z,11.90
2023-10-23T20:31:18.799Z,11.98
2023-10-23T20:33:47.471Z,11.93
2023-10-23T20:36:15.456Z,11.94
2023-10-23T20:38:43.380Z,11.90
2023-10-23T20:41:16.975Z,11.74
2023-10-23T20:43:47.807Z,11.81
2023-10-23T20:46:16.305Z,11.80
2023-10-23T20:48:44.443Z,11.51
2023-10-23T20:51:12.900Z,11.43
2023-10-23T20:53:41.014Z,11.43
2023-10-23T20:56:09.430Z,11.42
2023-10-23T20:58:38.945Z,11.41
2023-10-23T21:01:09.538Z,11.40
2023-10-23T21:03:37.945Z,11.33
2023-10-23T21:06:07.503Z,11.26
2023-10-23T21:08:38.070Z,11.29
2023-10-23T21:11:06.739Z,11.22
2023-10-23T21:13:35.237Z,11.19
2023-10-23T21:16:03.893Z,11.23
2023-10-23T21:18:33.229Z,11.27
2023-10-23T21:21:01.476Z,11.12
2023-10-23T21:23:30.226Z,11.15
2023-10-23T21:25:58.528Z,10.58
2023-10-23T21:28:27.107Z,10.93
2023-10-23T21:30:55.343Z,10.85
2023-10-23T21:33:23.428Z,10.68
2023-10-23T21:35:53.601Z,10.60
2023-10-23T21:38:21.597Z,10.70
2023-10-23T21:40:50.081Z,10.52
2023-10-23T21:43:19.564Z,10.41
2023-10-23T21:45:47.772Z,10.36
2023-10-23T21:48:18.283Z,10.81
2023-10-23T21:50:46.501Z,10.85
2023-10-23T21:53:16.547Z,10.41
2023-10-23T21:55:44.998Z,10.44
2023-10-23T21:58:13.574Z,10.09
2023-10-23T22:00:41.879Z,10.35
2023-10-23T22:03:10.175Z,10.62
2023-10-23T22:05:38.777Z,10.53
2023-10-23T22:08:07.410Z,10.88
2023-10-23T22:10:37.553Z,10.66
2023-10-23T22:13:05.985Z,10.58
2023-10-23T22:15:33.900Z,10.67
2023-10-23T22:18:02.231Z,10.38
2023-10-23T22:20:30.236Z,10.11
2023-10-23T22:22:58.168Z,10.04
2023-10-23T22:25:26.148Z,10.54
2023-10-23T22:27:55.732Z,10.54
2023-10-23T22:30:23.783Z,10.44
2023-10-23T22:33:03.873Z,10.07
2023-10-23T22:35:40.185Z,10.02
2023-10-23T22:38:10.032Z,10.48
2023-10-23T22:40:38.246Z,10.37
2023-10-23T22:43:07.768Z,10.25
2023-10-23T22:45:41.355Z,10.59
2023-10-23T22:48:19.151Z,10.62
2023-10-23T22:50:47.705Z,10.46
2023-10-23T22:53:16.120Z,10.46
2023-10-23T22:55:44.609Z,10.28
2023-10-23T22:58:19.062Z,10.28
2023-10-23T23:00:47.444Z,10.19
2023-10-23T23:03:15.924Z,10.36
2023-10-23T23:05:46.453Z,10.56
2023-10-23T23:08:15.844Z,10.42
2023-10-23T23:10:44.205Z,9.98
2023-10-23T23:13:14.297Z,10.39
2023-10-23T23:15:46.149Z,10.47
2023-10-23T23:18:18.624Z,10.35
2023-10-23T23:20:51.975Z,10.42
2023-10-23T23:23:19.946Z,10.17
2023-10-23T23:25:47.887Z,10.15
2023-10-23T23:28:17.261Z,9.93
2023-10-23T23:30:45.287Z,9.81
2023-10-23T23:33:13.251Z,9.81
2023-10-23T23:35:41.225Z,10.01
2023-10-23T23:38:09.175Z,9.98
2023-10-23T23:40:37.172Z,10.07
2023-10-23T23:43:05.295Z,9.96
2023-10-23T23:45:34.677Z,9.61
2023-10-23T23:48:02.767Z,9.70
2023-10-23T23:50:30.763Z,9.69
2023-10-23T23:52:59.337Z,9.96
2023-10-23T23:55:27.900Z,10.14
2023-10-23T23:57:55.949Z,10.58
